sensor_id;sensor_type;location;lat;lon;timestamp;temperature;humidity
15178;DHT22;7689;53.612;-2.416;2022-11-14T00:01:33;9.40;99.90
15178;DHT22;7689;53.612;-2.416;2022-11-14T00:03:58;9.50;99.90
15178;DHT22;7689;53.612;-2.416;2022-11-14T00:06:24;9.50;99.90
15178;DHT22;7689;53.612;-2.416;2022-11-14T00:08:50;9.50;99.90
15178;DHT22;7689;53.612;-2.416;2022-11-14T00:11:15;9.40;99.90
15178;DHT22;7689;53.612;-2.416;2022-11-14T00:13:41;9.50;99.90
15178;DHT22;7689;53.612;-2.416;2022-11-14T00:16:06;9.50;99.90
15178;DHT22;7689;53.612;-2.416;2022-11-14T00:18:32;9.50;99.90
15178;DHT22;7689;53.612;-2.416;2022-11-14T00:20:58;9.40;99.90
15178;DHT22;7689;53.612;-2.416;2022-11-14T00:23:23;9.30;99.90
15178;DHT22;7689;53.612;-2.416;2022-11-14T00:25:49;9.30;99.90
15178;DHT22;7689;53.612;-2.416;2022-11-14T00:28:15;9.30;99.90
15178;DHT22;7689;53.612;-2.416;2022-11-14T00:30:40;9.40;99.90
15178;DHT22;7689;53.612;-2.416;2022-11-14T00:33:06;9.30;99.90
15178;DHT22;7689;53.612;-2.416;2022-11-14T00:35:31;9.30;99.90
15178;DHT22;7689;53.612;-2.416;2022-11-14T00:37:57;9.30;99.90
15178;DHT22;7689;53.612;-2.416;2022-11-14T00:40:23;9.30;99.90
15178;DHT22;7689;53.612;-2.416;2022-11-14T00:42:48;9.40;99.90
15178;DHT22;7689;53.612;-2.416;2022-11-14T00:45:14;9.40;99.90
15178;DHT22;7689;53.612;-2.416;2022-11-14T00:47:40;9.30;99.90
15178;DHT22;7689;53.612;-2.416;2022-11-14T00:50:06;9.30;99.90
15178;DHT22;7689;53.612;-2.416;2022-11-14T00:52:31;9.30;99.90
15178;DHT22;7689;53.612;-2.416;2022-11-14T00:54:57;9.20;99.90
15178;DHT22;7689;53.612;-2.416;2022-11-14T00:57:23;9.20;99.90
15178;DHT22;7689;53.612;-2.416;2022-11-14T00:59:48;9.30;99.90
15178;DHT22;7689;53.612;-2.416;2022-11-14T01:02:14;9.40;99.90
15178;DHT22;7689;53.612;-2.416;2022-11-14T01:04:39;9.50;99.90
15178;DHT22;7689;53.612;-2.416;2022-11-14T01:07:05;9.70;99.90
15178;DHT22;7689;53.612;-2.416;2022-11-14T01:09:31;9.80;99.90
15178;DHT22;7689;53.612;-2.416;2022-11-14T01:11:56;9.90;99.90
15178;DHT22;7689;53.612;-2.416;2022-11-14T01:14:22;10.00;99.90
15178;DHT22;7689;53.612;-2.416;2022-11-14T01:16:47;10.10;99.90
15178;DHT22;7689;53.612;-2.416;2022-11-14T01:19:13;10.00;99.90
15178;DHT22;7689;53.612;-2.416;2022-11-14T01:21:39;9.90;99.90
15178;DHT22;7689;53.612;-2.416;2022-11-14T01:24:05;9.90;99.90
15178;DHT22;7689;53.612;-2.416;2022-11-14T01:26:30;9.80;99.90
15178;DHT22;7689;53.612;-2.416;2022-11-14T01:28:56;9.80;99.90
15178;DHT22;7689;53.612;-2.416;2022-11-14T01:31:23;9.80;99.90
15178;DHT22;7689;53.612;-2.416;2022-11-14T01:33:51;9.80;99.90
15178;DHT22;7689;53.612;-2.416;2022-11-14T01:36:18;9.70;99.90
15178;DHT22;7689;53.612;-2.416;2022-11-14T01:38:44;9.60;99.90
15178;DHT22;7689;53.612;-2.416;2022-11-14T01:41:14;9.70;99.90
15178;DHT22;7689;53.612;-2.416;2022-11-14T01:43:41;9.80;99.90
15178;DHT22;7689;53.612;-2.416;2022-11-14T01:46:29;9.80;99.90
15178;DHT22;7689;53.612;-2.416;2022-11-14T01:49:15;9.80;99.90
15178;DHT22;7689;53.612;-2.416;2022-11-14T01:51:44;9.90;99.90
15178;DHT22;7689;53.612;-2.416;2022-11-14T01:54:24;10.10;99.90
15178;DHT22;7689;53.612;-2.416;2022-11-14T01:57:02;10.20;99.90
15178;DHT22;7689;53.612;-2.416;2022-11-14T01:59:34;10.40;99.90
15178;DHT22;7689;53.612;-2.416;2022-11-14T02:02:05;10.50;99.90
15178;DHT22;7689;53.612;-2.416;2022-11-14T02:04:37;10.60;99.90
15178;DHT22;7689;53.612;-2.416;2022-11-14T02:07:04;10.40;99.90
15178;DHT22;7689;53.612;-2.416;2022-11-14T02:09:35;10.20;99.90
15178;DHT22;7689;53.612;-2.416;2022-11-14T02:12:03;10.00;99.90
15178;DHT22;7689;53.612;-2.416;2022-11-14T02:14:31;9.90;99.90
15178;DHT22;7689;53.612;-2.416;2022-11-14T02:16:57;9.90;99.90
15178;DHT22;7689;53.612;-2.416;2022-11-14T02:19:23;10.00;99.90
15178;DHT22;7689;53.612;-2.416;2022-11-14T02:21:49;10.00;99.90
15178;DHT22;7689;53.612;-2.416;2022-11-14T02:24:14;10.00;99.90
15178;DHT22;7689;53.612;-2.416;2022-11-14T02:26:40;10.10;99.90
15178;DHT22;7689;53.612;-2.416;2022-11-14T02:29:09;10.10;99.90
15178;DHT22;7689;53.612;-2.416;2022-11-14T02:31:35;10.20;99.90
15178;DHT22;7689;53.612;-2.416;2022-11-14T02:34:00;10.20;99.90
15178;DHT22;7689;53.612;-2.416;2022-11-14T02:36:26;10.20;99.90
15178;DHT22;7689;53.612;-2.416;2022-11-14T02:38:52;10.20;99.90
15178;DHT22;7689;53.612;-2.416;2022-11-14T02:41:18;10.20;99.90
15178;DHT22;7689;53.612;-2.416;2022-11-14T02:43:43;10.20;99.90
15178;DHT22;7689;53.612;-2.416;2022-11-14T02:46:09;10.20;99.90
15178;DHT22;7689;53.612;-2.416;2022-11-14T02:48:35;10.20;99.90
15178;DHT22;7689;53.612;-2.416;2022-11-14T02:51:01;10.20;99.90
15178;DHT22;7689;53.612;-2.416;2022-11-14T02:53:27;10.10;99.90
15178;DHT22;7689;53.612;-2.416;2022-11-14T02:55:52;9.90;99.90
15178;DHT22;7689;53.612;-2.416;2022-11-14T02:58:18;9.90;99.90
15178;DHT22;7689;53.612;-2.416;2022-11-14T03:00:44;9.90;99.90
15178;DHT22;7689;53.612;-2.416;2022-11-14T03:03:09;9.90;99.90
15178;DHT22;7689;53.612;-2.416;2022-11-14T03:05:35;9.90;99.90
15178;DHT22;7689;53.612;-2.416;2022-11-14T03:08:01;10.00;99.90
15178;DHT22;7689;53.612;-2.416;2022-11-14T03:10:27;9.90;99.90
15178;DHT22;7689;53.612;-2.416;2022-11-14T03:12:56;10.00;99.90
15178;DHT22;7689;53.612;-2.416;2022-11-14T03:15:22;10.00;99.90
15178;DHT22;7689;53.612;-2.416;2022-11-14T03:17:48;10.00;99.90
15178;DHT22;7689;53.612;-2.416;2022-11-14T03:20:14;10.10;99.90
15178;DHT22;7689;53.612;-2.416;2022-11-14T03:22:39;10.20;99.90
15178;DHT22;7689;53.612;-2.416;2022-11-14T03:25:05;10.30;99.90
15178;DHT22;7689;53.612;-2.416;2022-11-14T03:27:31;10.30;99.90
15178;DHT22;7689;53.612;-2.416;2022-11-14T03:29:57;10.30;99.90
15178;DHT22;7689;53.612;-2.416;2022-11-14T03:32:22;10.40;99.90
15178;DHT22;7689;53.612;-2.416;2022-11-14T03:34:48;10.40;99.90
15178;DHT22;7689;53.612;-2.416;2022-11-14T03:37:14;10.40;99.90
15178;DHT22;7689;53.612;-2.416;2022-11-14T03:39:39;10.40;99.90
15178;DHT22;7689;53.612;-2.416;2022-11-14T03:42:05;10.30;99.90
15178;DHT22;7689;53.612;-2.416;2022-11-14T03:44:31;10.20;99.90
15178;DHT22;7689;53.612;-2.416;2022-11-14T03:46:56;10.10;99.90
15178;DHT22;7689;53.612;-2.416;2022-11-14T03:49:22;10.10;99.90
15178;DHT22;7689;53.612;-2.416;2022-11-14T03:51:47;10.20;99.90
15178;DHT22;7689;53.612;-2.416;2022-11-14T03:54:13;10.20;99.90
15178;DHT22;7689;53.612;-2.416;2022-11-14T03:56:39;10.20;99.90
15178;DHT22;7689;53.612;-2.416;2022-11-14T03:59:04;10.30;99.90
15178;DHT22;7689;53.612;-2.416;2022-11-14T04:01:30;10.30;99.90
15178;DHT22;7689;53.612;-2.416;2022-11-14T04:03:56;10.40;99.90
15178;DHT22;7689;53.612;-2.416;2022-11-14T04:06:21;10.40;99.90
15178;DHT22;7689;53.612;-2.416;2022-11-14T04:08:47;10.50;99.90
15178;DHT22;7689;53.612;-2.416;2022-11-14T04:11:13;10.50;99.90
15178;DHT22;7689;53.612;-2.416;2022-11-14T04:13:39;10.50;99.90
15178;DHT22;7689;53.612;-2.416;2022-11-14T04:16:04;10.50;99.90
15178;DHT22;7689;53.612;-2.416;2022-11-14T04:18:30;10.50;99.90
15178;DHT22;7689;53.612;-2.416;2022-11-14T04:20:56;10.50;99.90
15178;DHT22;7689;53.612;-2.416;2022-11-14T04:23:21;10.60;99.90
15178;DHT22;7689;53.612;-2.416;2022-11-14T04:25:47;10.60;99.90
15178;DHT22;7689;53.612;-2.416;2022-11-14T04:28:13;10.60;99.90
15178;DHT22;7689;53.612;-2.416;2022-11-14T04:30:39;10.60;99.90
15178;DHT22;7689;53.612;-2.416;2022-11-14T04:33:04;10.50;99.90
15178;DHT22;7689;53.612;-2.416;2022-11-14T04:35:30;10.50;99.90
15178;DHT22;7689;53.612;-2.416;2022-11-14T04:37:56;10.50;99.90
15178;DHT22;7689;53.612;-2.416;2022-11-14T04:40:21;10.50;99.90
15178;DHT22;7689;53.612;-2.416;2022-11-14T04:42:47;10.60;99.90
15178;DHT22;7689;53.612;-2.416;2022-11-14T04:45:13;10.60;99.90
15178;DHT22;7689;53.612;-2.416;2022-11-14T04:47:43;10.60;99.90
15178;DHT22;7689;53.612;-2.416;2022-11-14T04:50:09;10.70;99.90
15178;DHT22;7689;53.612;-2.416;2022-11-14T04:52:35;10.70;99.90
15178;DHT22;7689;53.612;-2.416;2022-11-14T04:55:01;10.60;99.90
15178;DHT22;7689;53.612;-2.416;2022-11-14T04:57:26;10.70;99.90
15178;DHT22;7689;53.612;-2.416;2022-11-14T04:59:52;10.70;99.90
15178;DHT22;7689;53.612;-2.416;2022-11-14T05:02:18;10.60;99.90
15178;DHT22;7689;53.612;-2.416;2022-11-14T05:04:43;10.70;99.90
15178;DHT22;7689;53.612;-2.416;2022-11-14T05:07:10;10.70;99.90
15178;DHT22;7689;53.612;-2.416;2022-11-14T05:09:35;10.70;99.90
15178;DHT22;7689;53.612;-2.416;2022-11-14T05:12:02;10.70;99.90
15178;DHT22;7689;53.612;-2.416;2022-11-14T05:14:28;10.70;99.90
15178;DHT22;7689;53.612;-2.416;2022-11-14T05:16:54;10.70;99.90
15178;DHT22;7689;53.612;-2.416;2022-11-14T05:19:19;10.70;99.90
15178;DHT22;7689;53.612;-2.416;2022-11-14T05:21:45;10.60;99.90
15178;DHT22;7689;53.612;-2.416;2022-11-14T05:24:11;10.50;99.90
15178;DHT22;7689;53.612;-2.416;2022-11-14T05:26:36;10.50;99.90
15178;DHT22;7689;53.612;-2.416;2022-11-14T05:29:03;10.50;99.90
15178;DHT22;7689;53.612;-2.416;2022-11-14T05:31:28;10.60;99.90
15178;DHT22;7689;53.612;-2.416;2022-11-14T05:33:54;10.60;99.90
15178;DHT22;7689;53.612;-2.416;2022-11-14T05:36:20;10.60;99.90
15178;DHT22;7689;53.612;-2.416;2022-11-14T05:38:46;10.70;99.90
15178;DHT22;7689;53.612;-2.416;2022-11-14T05:41:14;10.70;99.90
15178;DHT22;7689;53.612;-2.416;2022-11-14T05:43:40;10.70;99.90
15178;DHT22;7689;53.612;-2.416;2022-11-14T05:46:09;10.70;99.90
15178;DHT22;7689;53.612;-2.416;2022-11-14T05:48:35;10.70;99.90
15178;DHT22;7689;53.612;-2.416;2022-11-14T05:51:03;10.70;99.90
15178;DHT22;7689;53.612;-2.416;2022-11-14T05:53:30;10.70;99.90
15178;DHT22;7689;53.612;-2.416;2022-11-14T05:56:02;10.80;99.90
15178;DHT22;7689;53.612;-2.416;2022-11-14T05:58:30;10.70;99.90
15178;DHT22;7689;53.612;-2.416;2022-11-14T06:01:04;10.60;99.90
15178;DHT22;7689;53.612;-2.416;2022-11-14T06:03:32;10.60;99.90
15178;DHT22;7689;53.612;-2.416;2022-11-14T06:06:03;10.70;99.90
15178;DHT22;7689;53.612;-2.416;2022-11-14T06:08:30;10.80;99.90
15178;DHT22;7689;53.612;-2.416;2022-11-14T06:10:58;10.80;99.90
15178;DHT22;7689;53.612;-2.416;2022-11-14T06:13:25;10.80;99.90
15178;DHT22;7689;53.612;-2.416;2022-11-14T06:15:51;10.80;99.90
15178;DHT22;7689;53.612;-2.416;2022-11-14T06:18:16;10.70;99.90
15178;DHT22;7689;53.612;-2.416;2022-11-14T06:20:42;10.70;99.90
15178;DHT22;7689;53.612;-2.416;2022-11-14T06:23:08;10.80;99.90
15178;DHT22;7689;53.612;-2.416;2022-11-14T06:25:33;10.70;99.90
15178;DHT22;7689;53.612;-2.416;2022-11-14T06:27:59;10.70;99.90
15178;DHT22;7689;53.612;-2.416;2022-11-14T06:30:25;10.80;99.90
15178;DHT22;7689;53.612;-2.416;2022-11-14T06:32:56;10.80;99.90
15178;DHT22;7689;53.612;-2.416;2022-11-14T06:35:22;10.80;99.90
15178;DHT22;7689;53.612;-2.416;2022-11-14T06:37:48;10.80;99.90
15178;DHT22;7689;53.612;-2.416;2022-11-14T06:40:13;10.70;99.90
15178;DHT22;7689;53.612;-2.416;2022-11-14T06:42:39;10.70;99.90
15178;DHT22;7689;53.612;-2.416;2022-11-14T06:45:05;10.70;99.90
15178;DHT22;7689;53.612;-2.416;2022-11-14T06:47:31;10.70;99.90
15178;DHT22;7689;53.612;-2.416;2022-11-14T06:49:56;10.70;99.90
15178;DHT22;7689;53.612;-2.416;2022-11-14T06:52:22;10.80;99.90
15178;DHT22;7689;53.612;-2.416;2022-11-14T06:54:48;10.80;99.90
15178;DHT22;7689;53.612;-2.416;2022-11-14T06:57:13;10.80;99.90
15178;DHT22;7689;53.612;-2.416;2022-11-14T06:59:39;10.90;99.90
15178;DHT22;7689;53.612;-2.416;2022-11-14T07:02:05;10.90;99.90
15178;DHT22;7689;53.612;-2.416;2022-11-14T07:04:31;10.90;99.90
15178;DHT22;7689;53.612;-2.416;2022-11-14T07:06:56;10.90;99.90
15178;DHT22;7689;53.612;-2.416;2022-11-14T07:09:22;10.90;99.90
15178;DHT22;7689;53.612;-2.416;2022-11-14T07:11:47;10.90;99.90
15178;DHT22;7689;53.612;-2.416;2022-11-14T07:14:13;11.00;99.90
15178;DHT22;7689;53.612;-2.416;2022-11-14T07:16:39;11.00;99.90
15178;DHT22;7689;53.612;-2.416;2022-11-14T07:19:06;11.00;99.90
15178;DHT22;7689;53.612;-2.416;2022-11-14T07:21:34;11.00;99.90
15178;DHT22;7689;53.612;-2.416;2022-11-14T07:24:00;11.00;99.90
15178;DHT22;7689;53.612;-2.416;2022-11-14T07:26:26;10.90;99.90
15178;DHT22;7689;53.612;-2.416;2022-11-14T07:28:51;10.90;99.90
15178;DHT22;7689;53.612;-2.416;2022-11-14T07:31:18;10.90;99.90
15178;DHT22;7689;53.612;-2.416;2022-11-14T07:33:45;10.90;99.90
15178;DHT22;7689;53.612;-2.416;2022-11-14T07:36:12;11.00;99.90
15178;DHT22;7689;53.612;-2.416;2022-11-14T07:38:38;11.00;99.90
15178;DHT22;7689;53.612;-2.416;2022-11-14T07:41:07;11.00;99.90
15178;DHT22;7689;53.612;-2.416;2022-11-14T07:43:33;11.00;99.90
15178;DHT22;7689;53.612;-2.416;2022-11-14T07:46:12;11.00;99.90
15178;DHT22;7689;53.612;-2.416;2022-11-14T07:48:39;11.10;99.90
15178;DHT22;7689;53.612;-2.416;2022-11-14T07:51:07;11.00;99.90
15178;DHT22;7689;53.612;-2.416;2022-11-14T07:53:33;11.00;99.90
15178;DHT22;7689;53.612;-2.416;2022-11-14T07:56:05;11.10;99.90
15178;DHT22;7689;53.612;-2.416;2022-11-14T07:58:35;11.00;99.90
15178;DHT22;7689;53.612;-2.416;2022-11-14T08:01:01;11.10;99.90
15178;DHT22;7689;53.612;-2.416;2022-11-14T08:03:27;11.10;99.90
15178;DHT22;7689;53.612;-2.416;2022-11-14T08:08:26;11.00;99.90
15178;DHT22;7689;53.612;-2.416;2022-11-14T08:10:55;11.00;99.90
15178;DHT22;7689;53.612;-2.416;2022-11-14T08:13:20;11.10;99.90
15178;DHT22;7689;53.612;-2.416;2022-11-14T08:15:46;11.10;99.90
15178;DHT22;7689;53.612;-2.416;2022-11-14T08:18:12;11.10;99.90
15178;DHT22;7689;53.612;-2.416;2022-11-14T08:20:37;11.00;99.90
15178;DHT22;7689;53.612;-2.416;2022-11-14T08:23:04;11.00;99.90
15178;DHT22;7689;53.612;-2.416;2022-11-14T08:25:31;11.00;99.90
15178;DHT22;7689;53.612;-2.416;2022-11-14T08:27:57;10.90;99.90
15178;DHT22;7689;53.612;-2.416;2022-11-14T08:30:24;10.80;99.90
15178;DHT22;7689;53.612;-2.416;2022-11-14T08:32:49;10.90;99.90
15178;DHT22;7689;53.612;-2.416;2022-11-14T08:35:15;10.80;99.90
15178;DHT22;7689;53.612;-2.416;2022-11-14T08:37:41;10.80;99.90
15178;DHT22;7689;53.612;-2.416;2022-11-14T08:40:07;10.80;99.90
15178;DHT22;7689;53.612;-2.416;2022-11-14T08:42:33;10.80;99.90
15178;DHT22;7689;53.612;-2.416;2022-11-14T08:44:58;10.90;99.90
15178;DHT22;7689;53.612;-2.416;2022-11-14T08:47:24;10.90;99.90
15178;DHT22;7689;53.612;-2.416;2022-11-14T08:49:50;10.90;99.90
15178;DHT22;7689;53.612;-2.416;2022-11-14T08:52:15;10.90;99.90
15178;DHT22;7689;53.612;-2.416;2022-11-14T08:54:41;11.00;99.90
15178;DHT22;7689;53.612;-2.416;2022-11-14T08:57:07;10.90;99.90
15178;DHT22;7689;53.612;-2.416;2022-11-14T08:59:32;11.00;99.90
15178;DHT22;7689;53.612;-2.416;2022-11-14T09:01:58;11.00;99.90
15178;DHT22;7689;53.612;-2.416;2022-11-14T09:04:24;11.00;99.90
15178;DHT22;7689;53.612;-2.416;2022-11-14T09:06:50;11.10;99.90
15178;DHT22;7689;53.612;-2.416;2022-11-14T09:09:16;11.10;99.90
15178;DHT22;7689;53.612;-2.416;2022-11-14T09:11:43;11.10;99.90
15178;DHT22;7689;53.612;-2.416;2022-11-14T09:14:08;11.30;99.90
15178;DHT22;7689;53.612;-2.416;2022-11-14T09:16:34;11.20;99.90
15178;DHT22;7689;53.612;-2.416;2022-11-14T09:19:00;11.20;99.90
15178;DHT22;7689;53.612;-2.416;2022-11-14T09:21:25;11.30;99.90
15178;DHT22;7689;53.612;-2.416;2022-11-14T09:23:51;11.30;99.90
15178;DHT22;7689;53.612;-2.416;2022-11-14T09:26:17;11.30;99.90
15178;DHT22;7689;53.612;-2.416;2022-11-14T09:28:44;11.30;99.90
15178;DHT22;7689;53.612;-2.416;2022-11-14T09:31:11;11.40;99.90
15178;DHT22;7689;53.612;-2.416;2022-11-14T09:33:37;11.40;99.90
15178;DHT22;7689;53.612;-2.416;2022-11-14T09:36:05;11.40;99.90
15178;DHT22;7689;53.612;-2.416;2022-11-14T09:38:32;11.40;99.90
15178;DHT22;7689;53.612;-2.416;2022-11-14T09:44:56;11.50;99.90
15178;DHT22;7689;53.612;-2.416;2022-11-14T09:46:57;11.50;99.90
15178;DHT22;7689;53.612;-2.416;2022-11-14T09:49:34;11.30;99.90
15178;DHT22;7689;53.612;-2.416;2022-11-14T09:54:38;11.40;99.90
15178;DHT22;7689;53.612;-2.416;2022-11-14T09:57:13;11.30;99.90
15178;DHT22;7689;53.612;-2.416;2022-11-14T09:59:39;11.20;99.90
15178;DHT22;7689;53.612;-2.416;2022-11-14T10:02:17;11.30;99.90
15178;DHT22;7689;53.612;-2.416;2022-11-14T10:15:45;11.50;99.90
15178;DHT22;7689;53.612;-2.416;2022-11-14T10:27:01;11.60;99.90
15178;DHT22;7689;53.612;-2.416;2022-11-14T10:32:28;11.60;99.90
15178;DHT22;7689;53.612;-2.416;2022-11-14T10:35:18;11.60;99.90
15178;DHT22;7689;53.612;-2.416;2022-11-14T10:38:06;11.50;99.90
15178;DHT22;7689;53.612;-2.416;2022-11-14T10:40:48;11.50;99.90
15178;DHT22;7689;53.612;-2.416;2022-11-14T10:43:45;11.60;99.90
15178;DHT22;7689;53.612;-2.416;2022-11-14T10:46:40;11.70;99.90
15178;DHT22;7689;53.612;-2.416;2022-11-14T10:49:19;10.10;99.90
15178;DHT22;7689;53.612;-2.416;2022-11-14T10:52:01;11.70;99.90
15178;DHT22;7689;53.612;-2.416;2022-11-14T10:54:45;11.70;99.90
15178;DHT22;7689;53.612;-2.416;2022-11-14T10:57:17;11.70;99.90
15178;DHT22;7689;53.612;-2.416;2022-11-14T10:59:43;11.80;99.90
15178;DHT22;7689;53.612;-2.416;2022-11-14T11:02:09;11.70;99.90
15178;DHT22;7689;53.612;-2.416;2022-11-14T11:04:36;11.70;99.90
15178;DHT22;7689;53.612;-2.416;2022-11-14T11:09:32;11.70;99.90
15178;DHT22;7689;53.612;-2.416;2022-11-14T11:12:20;11.70;99.90
15178;DHT22;7689;53.612;-2.416;2022-11-14T11:14:49;11.70;99.90
15178;DHT22;7689;53.612;-2.416;2022-11-14T11:17:20;11.80;99.90
15178;DHT22;7689;53.612;-2.416;2022-11-14T11:19:47;11.90;99.90
15178;DHT22;7689;53.612;-2.416;2022-11-14T11:22:29;11.90;99.90
15178;DHT22;7689;53.612;-2.416;2022-11-14T11:24:59;11.80;99.90
15178;DHT22;7689;53.612;-2.416;2022-11-14T11:27:26;11.90;99.90
15178;DHT22;7689;53.612;-2.416;2022-11-14T11:32:27;11.80;99.90
15178;DHT22;7689;53.612;-2.416;2022-11-14T11:34:55;11.90;99.90
15178;DHT22;7689;53.612;-2.416;2022-11-14T11:37:27;11.90;99.90
15178;DHT22;7689;53.612;-2.416;2022-11-14T11:39:57;11.90;99.90
15178;DHT22;7689;53.612;-2.416;2022-11-14T11:43:03;12.00;99.90
15178;DHT22;7689;53.612;-2.416;2022-11-14T11:45:32;12.00;99.90
15178;DHT22;7689;53.612;-2.416;2022-11-14T11:48:07;12.00;99.90
15178;DHT22;7689;53.612;-2.416;2022-11-14T11:50:35;12.10;99.90
15178;DHT22;7689;53.612;-2.416;2022-11-14T11:55:50;12.10;99.90
15178;DHT22;7689;53.612;-2.416;2022-11-14T11:58:41;12.10;99.90
15178;DHT22;7689;53.612;-2.416;2022-11-14T12:01:12;12.10;99.90
15178;DHT22;7689;53.612;-2.416;2022-11-14T12:03:45;12.10;99.90
15178;DHT22;7689;53.612;-2.416;2022-11-14T12:06:20;12.10;99.90
15178;DHT22;7689;53.612;-2.416;2022-11-14T12:09:17;12.20;99.90
15178;DHT22;7689;53.612;-2.416;2022-11-14T12:11:53;12.20;99.90
15178;DHT22;7689;53.612;-2.416;2022-11-14T12:30:48;12.10;99.90
15178;DHT22;7689;53.612;-2.416;2022-11-14T12:33:21;12.00;99.90
15178;DHT22;7689;53.612;-2.416;2022-11-14T12:35:51;12.10;99.90
15178;DHT22;7689;53.612;-2.416;2022-11-14T12:38:18;12.10;99.90
15178;DHT22;7689;53.612;-2.416;2022-11-14T12:40:54;12.10;99.90
15178;DHT22;7689;53.612;-2.416;2022-11-14T12:43:36;12.00;99.90
15178;DHT22;7689;53.612;-2.416;2022-11-14T12:46:07;12.10;99.90
15178;DHT22;7689;53.612;-2.416;2022-11-14T12:48:42;12.10;99.90
15178;DHT22;7689;53.612;-2.416;2022-11-14T12:53:57;12.10;99.90
15178;DHT22;7689;53.612;-2.416;2022-11-14T13:11:54;12.10;99.90
15178;DHT22;7689;53.612;-2.416;2022-11-14T13:14:50;12.10;99.90
15178;DHT22;7689;53.612;-2.416;2022-11-14T13:17:35;12.10;99.90
15178;DHT22;7689;53.612;-2.416;2022-11-14T13:36:13;12.30;99.90
15178;DHT22;7689;53.612;-2.416;2022-11-14T13:39:00;12.30;99.90
15178;DHT22;7689;53.612;-2.416;2022-11-14T13:52:07;12.30;99.90
15178;DHT22;7689;53.612;-2.416;2022-11-14T13:54:32;12.30;99.90
15178;DHT22;7689;53.612;-2.416;2022-11-14T14:16:40;12.10;99.90
15178;DHT22;7689;53.612;-2.416;2022-11-14T14:24:50;12.20;99.90
15178;DHT22;7689;53.612;-2.416;2022-11-14T14:27:59;12.20;99.90
15178;DHT22;7689;53.612;-2.416;2022-11-14T14:30:25;12.20;99.90
15178;DHT22;7689;53.612;-2.416;2022-11-14T14:33:10;12.20;99.90
15178;DHT22;7689;53.612;-2.416;2022-11-14T14:35:37;12.20;99.90
15178;DHT22;7689;53.612;-2.416;2022-11-14T14:38:11;12.20;99.90
15178;DHT22;7689;53.612;-2.416;2022-11-14T14:40:39;12.30;99.90
15178;DHT22;7689;53.612;-2.416;2022-11-14T14:43:05;12.30;99.90
15178;DHT22;7689;53.612;-2.416;2022-11-14T14:45:44;12.30;99.90
15178;DHT22;7689;53.612;-2.416;2022-11-14T14:48:14;12.30;99.90
15178;DHT22;7689;53.612;-2.416;2022-11-14T14:50:52;12.30;99.90
15178;DHT22;7689;53.612;-2.416;2022-11-14T14:53:36;12.40;99.90
15178;DHT22;7689;53.612;-2.416;2022-11-14T14:56:05;12.40;99.90
15178;DHT22;7689;53.612;-2.416;2022-11-14T14:58:33;12.30;99.90
15178;DHT22;7689;53.612;-2.416;2022-11-14T15:01:02;12.30;99.90
15178;DHT22;7689;53.612;-2.416;2022-11-14T15:03:36;12.30;99.90
15178;DHT22;7689;53.612;-2.416;2022-11-14T15:06:05;12.30;99.90
15178;DHT22;7689;53.612;-2.416;2022-11-14T15:08:36;12.30;99.90
15178;DHT22;7689;53.612;-2.416;2022-11-14T15:11:03;12.30;99.90
15178;DHT22;7689;53.612;-2.416;2022-11-14T15:13:30;12.20;99.90
15178;DHT22;7689;53.612;-2.416;2022-11-14T15:15:56;12.30;99.90
15178;DHT22;7689;53.612;-2.416;2022-11-14T15:18:28;12.30;99.90
15178;DHT22;7689;53.612;-2.416;2022-11-14T15:21:22;12.30;99.90
15178;DHT22;7689;53.612;-2.416;2022-11-14T15:24:18;12.40;99.90
15178;DHT22;7689;53.612;-2.416;2022-11-14T15:26:44;12.30;99.90
15178;DHT22;7689;53.612;-2.416;2022-11-14T15:29:17;12.30;99.90
15178;DHT22;7689;53.612;-2.416;2022-11-14T15:31:52;12.30;99.90
15178;DHT22;7689;53.612;-2.416;2022-11-14T15:34:25;12.30;99.90
15178;DHT22;7689;53.612;-2.416;2022-11-14T15:39:36;12.40;99.90
15178;DHT22;7689;53.612;-2.416;2022-11-14T15:42:27;12.30;99.90
15178;DHT22;7689;53.612;-2.416;2022-11-14T15:44:55;12.30;99.90
15178;DHT22;7689;53.612;-2.416;2022-11-14T15:47:26;12.30;99.90
15178;DHT22;7689;53.612;-2.416;2022-11-14T15:52:46;12.30;99.90
15178;DHT22;7689;53.612;-2.416;2022-11-14T15:55:20;12.30;99.90
15178;DHT22;7689;53.612;-2.416;2022-11-14T15:57:46;12.30;99.90
15178;DHT22;7689;53.612;-2.416;2022-11-14T16:00:12;12.30;99.90
15178;DHT22;7689;53.612;-2.416;2022-11-14T16:05:13;12.30;99.90
15178;DHT22;7689;53.612;-2.416;2022-11-14T16:07:39;12.20;99.90
15178;DHT22;7689;53.612;-2.416;2022-11-14T16:10:15;12.30;99.90
15178;DHT22;7689;53.612;-2.416;2022-11-14T16:12:42;12.20;99.90
15178;DHT22;7689;53.612;-2.416;2022-11-14T16:15:08;12.20;99.90
15178;DHT22;7689;53.612;-2.416;2022-11-14T16:17:35;12.20;99.90
15178;DHT22;7689;53.612;-2.416;2022-11-14T16:20:03;12.20;99.90
15178;DHT22;7689;53.612;-2.416;2022-11-14T16:22:30;12.20;99.90
15178;DHT22;7689;53.612;-2.416;2022-11-14T16:24:58;12.20;99.90
15178;DHT22;7689;53.612;-2.416;2022-11-14T16:27:24;12.20;99.90
15178;DHT22;7689;53.612;-2.416;2022-11-14T16:29:50;12.20;99.90
15178;DHT22;7689;53.612;-2.416;2022-11-14T16:32:15;12.20;99.90
15178;DHT22;7689;53.612;-2.416;2022-11-14T16:34:41;12.20;99.90
15178;DHT22;7689;53.612;-2.416;2022-11-14T16:37:11;12.20;99.90
15178;DHT22;7689;53.612;-2.416;2022-11-14T16:39:37;12.20;99.90
15178;DHT22;7689;53.612;-2.416;2022-11-14T16:42:04;12.10;99.90
15178;DHT22;7689;53.612;-2.416;2022-11-14T16:44:31;12.20;99.90
15178;DHT22;7689;53.612;-2.416;2022-11-14T16:46:57;12.20;99.90
15178;DHT22;7689;53.612;-2.416;2022-11-14T16:49:23;12.20;99.90
15178;DHT22;7689;53.612;-2.416;2022-11-14T16:51:49;12.20;99.90
15178;DHT22;7689;53.612;-2.416;2022-11-14T16:54:17;12.20;99.90
15178;DHT22;7689;53.612;-2.416;2022-11-14T16:56:43;12.20;99.90
15178;DHT22;7689;53.612;-2.416;2022-11-14T16:59:10;12.10;99.90
15178;DHT22;7689;53.612;-2.416;2022-11-14T17:01:36;12.10;99.90
15178;DHT22;7689;53.612;-2.416;2022-11-14T17:04:02;12.10;99.90
15178;DHT22;7689;53.612;-2.416;2022-11-14T17:06:28;12.20;99.90
15178;DHT22;7689;53.612;-2.416;2022-11-14T17:08:57;12.10;99.90
15178;DHT22;7689;53.612;-2.416;2022-11-14T17:11:24;12.10;99.90
15178;DHT22;7689;53.612;-2.416;2022-11-14T17:13:50;12.10;99.90
15178;DHT22;7689;53.612;-2.416;2022-11-14T17:16:16;12.10;99.90
15178;DHT22;7689;53.612;-2.416;2022-11-14T17:18:42;12.10;99.90
15178;DHT22;7689;53.612;-2.416;2022-11-14T17:21:09;12.10;99.90
15178;DHT22;7689;53.612;-2.416;2022-11-14T17:23:35;12.10;99.90
15178;DHT22;7689;53.612;-2.416;2022-11-14T17:26:05;12.10;99.90
15178;DHT22;7689;53.612;-2.416;2022-11-14T17:28:33;12.10;99.90
15178;DHT22;7689;53.612;-2.416;2022-11-14T17:30:59;12.10;99.90
15178;DHT22;7689;53.612;-2.416;2022-11-14T17:33:24;12.10;99.90
15178;DHT22;7689;53.612;-2.416;2022-11-14T17:35:50;12.10;99.90
15178;DHT22;7689;53.612;-2.416;2022-11-14T17:38:16;12.10;99.90
15178;DHT22;7689;53.612;-2.416;2022-11-14T17:40:41;12.10;99.90
15178;DHT22;7689;53.612;-2.416;2022-11-14T17:43:07;12.10;99.90
15178;DHT22;7689;53.612;-2.416;2022-11-14T17:45:32;12.10;99.90
15178;DHT22;7689;53.612;-2.416;2022-11-14T17:47:58;12.10;99.90
15178;DHT22;7689;53.612;-2.416;2022-11-14T17:50:24;12.10;99.90
15178;DHT22;7689;53.612;-2.416;2022-11-14T17:52:49;12.00;99.90
15178;DHT22;7689;53.612;-2.416;2022-11-14T17:55:15;12.00;99.90